Time;durP1;ratioP1;P1;durP2;ratioP2;P2;SDS_P1;SDS_P2;PMS_P1;PMS_P2;Temp;Humidity;BMP_temperature;BMP_pressure;BME280_temperature;BME280_humidity;BME280_pressure;Samples;Min_cycle;Max_cycle;Signal;HPM_P1;HPM_P2
2020/12/21 00:02:04;;;;;;;36.55;24.88;;;5.70;88.80;;;;;;5107569;28;20733;-85
2020/12/21 00:04:47;;;;;;;32.70;22.17;;;5.70;88.10;;;;;;5108225;28;20175;-86
2020/12/21 00:07:22;;;;;;;31.75;21.10;;;5.70;88.30;;;;;;5108399;28;20670;-86
2020/12/21 00:09:48;;;;;;;36.40;23.10;;;5.80;88.00;;;;;;5107355;28;20180;-86
2020/12/21 00:12:19;;;;;;;40.77;26.13;;;5.70;88.80;;;;;;5107669;28;20175;-86
2020/12/21 00:14:45;;;;;;;36.15;23.77;;;5.70;88.70;;;;;;5106669;28;20179;-85
2020/12/21 00:17:10;;;;;;;36.60;24.20;;;5.70;89.20;;;;;;5108345;28;20178;-86
2020/12/21 00:19:45;;;;;;;34.33;23.80;;;5.70;89.50;;;;;;5107363;28;20188;-87
2020/12/21 00:22:19;;;;;;;33.70;23.33;;;5.70;89.10;;;;;;5107426;28;20283;-86
2020/12/21 00:24:48;;;;;;;37.05;26.33;;;5.70;89.40;;;;;;5108092;28;20198;-86
2020/12/21 00:27:17;;;;;;;37.03;25.25;;;5.60;89.20;;;;;;5107098;28;20172;-86
2020/12/21 00:29:43;;;;;;;36.38;22.70;;;5.60;89.10;;;;;;5106479;28;20620;-86
2020/12/21 00:32:23;;;;;;;34.53;22.80;;;5.60;89.10;;;;;;5108406;28;20163;-86
2020/12/21 00:34:54;;;;;;;38.92;26.13;;;5.60;89.40;;;;;;5108310;28;20397;-86
2020/12/21 00:37:20;;;;;;;36.60;25.40;;;5.60;89.80;;;;;;5107868;27;20688;-85
2020/12/21 00:39:49;;;;;;;34.50;23.80;;;5.50;89.90;;;;;;5106129;28;20219;-86
2020/12/21 00:42:24;;;;;;;33.38;22.98;;;5.50;90.00;;;;;;5106399;28;20180;-86
2020/12/21 00:44:53;;;;;;;36.20;25.23;;;5.40;90.40;;;;;;5106645;27;20176;-86
2020/12/21 00:47:21;;;;;;;37.55;24.25;;;5.50;90.10;;;;;;5107960;28;20175;-85
2020/12/21 00:49:50;;;;;;;36.35;23.80;;;5.50;90.30;;;;;;5106459;28;20231;-86
2020/12/21 00:52:18;;;;;;;33.97;24.77;;;5.50;90.40;;;;;;5087118;28;20165;-86
2020/12/21 00:54:47;;;;;;;35.28;24.13;;;5.50;90.20;;;;;;5086759;28;20656;-85
2020/12/21 00:57:32;;;;;;;35.30;24.05;;;5.60;90.30;;;;;;5086429;28;20194;-86
2020/12/21 01:00:01;;;;;;;37.88;25.38;;;5.50;90.60;;;;;;5086394;28;20187;-85
2020/12/21 01:02:33;;;;;;;40.80;24.95;;;5.50;90.40;;;;;;5086856;28;20177;-86
2020/12/21 01:05:05;;;;;;;35.47;24.25;;;5.60;90.40;;;;;;5087003;28;20169;-86
2020/12/21 01:07:30;;;;;;;34.35;25.05;;;5.50;90.80;;;;;;5084842;28;20176;-85
2020/12/21 01:09:58;;;;;;;35.10;24.33;;;5.50;90.50;;;;;;5085455;28;20207;-86
2020/12/21 01:12:27;;;;;;;34.90;23.65;;;5.50;90.60;;;;;;5085519;28;20215;-85
2020/12/21 01:14:55;;;;;;;35.85;24.13;;;5.50;90.70;;;;;;5085807;28;20203;-85
2020/12/21 01:17:21;;;;;;;37.72;23.27;;;5.40;91.00;;;;;;5086014;28;20480;-85
2020/12/21 01:19:52;;;;;;;41.10;24.30;;;5.30;91.10;;;;;;5087207;28;20330;-85
2020/12/21 01:22:18;;;;;;;37.10;22.83;;;5.40;90.90;;;;;;5086738;28;20199;-84
2020/12/21 01:24:45;;;;;;;34.13;23.17;;;5.40;90.80;;;;;;5086647;28;20168;-86
2020/12/21 01:27:22;;;;;;;37.42;24.25;;;5.40;90.90;;;;;;5085929;28;20714;-86
2020/12/21 01:29:51;;;;;;;36.95;22.05;;;5.40;90.90;;;;;;5086867;28;20270;-85
2020/12/21 01:32:16;;;;;;;41.63;25.08;;;5.40;90.80;;;;;;5084035;28;20176;-84
2020/12/21 01:34:48;;;;;;;37.93;23.30;;;5.40;90.80;;;;;;5085453;28;20188;-86
2020/12/21 01:37:16;;;;;;;39.55;24.52;;;5.40;90.50;;;;;;5086986;28;20199;-86
2020/12/21 01:39:48;;;;;;;35.72;22.58;;;5.40;90.20;;;;;;5085464;28;20757;-86
2020/12/21 01:42:17;;;;;;;33.70;21.10;;;5.40;90.00;;;;;;5086417;28;20160;-85
2020/12/21 01:44:46;;;;;;;30.38;20.40;;;5.30;90.40;;;;;;5086578;28;20575;-86
2020/12/21 01:47:21;;;;;;;29.08;18.75;;;5.30;88.80;;;;;;5105674;28;20550;-86
2020/12/21 01:49:50;;;;;;;30.95;19.13;;;5.30;89.60;;;;;;5104604;28;20221;-85
2020/12/21 01:52:19;;;;;;;27.05;18.10;;;5.20;89.70;;;;;;5086622;28;20587;-85
2020/12/21 01:54:47;;;;;;;27.55;18.10;;;5.30;88.80;;;;;;5086300;28;20649;-85
2020/12/21 01:57:16;;;;;;;27.73;19.08;;;5.30;88.30;;;;;;5086740;28;20168;-85
2020/12/21 01:59:41;;;;;;;23.65;16.98;;;5.30;88.20;;;;;;5086992;28;20187;-85
2020/12/21 02:02:11;;;;;;;26.83;19.10;;;5.20;87.90;;;;;;5085305;28;20177;-86
2020/12/21 02:04:36;;;;;;;26.10;19.42;;;5.20;86.80;;;;;;5085759;28;20192;-86
2020/12/21 02:07:03;;;;;;;28.00;18.30;;;5.10;86.60;;;;;;5086456;28;20579;-85
2020/12/21 02:09:28;;;;;;;30.83;18.08;;;5.10;87.70;;;;;;5086147;28;20200;-85
2020/12/21 02:12:06;;;;;;;24.30;17.60;;;5.00;87.30;;;;;;5085125;28;21079;-85
2020/12/21 02:14:34;;;;;;;27.48;17.95;;;5.10;86.80;;;;;;5086403;28;20176;-85
2020/12/21 02:17:12;;;;;;;32.85;18.27;;;4.90;88.50;;;;;;5085529;28;20200;-85
2020/12/21 02:19:44;;;;;;;28.40;18.08;;;4.90;88.50;;;;;;5090118;28;20289;-85
2020/12/21 02:22:11;;;;;;;28.80;18.48;;;4.90;88.30;;;;;;5089592;28;20173;-85
2020/12/21 02:24:43;;;;;;;30.30;19.45;;;5.00;88.00;;;;;;5088551;28;20188;-85
2020/12/21 02:27:11;;;;;;;30.90;18.45;;;5.00;88.30;;;;;;5088904;28;20199;-85
2020/12/21 02:29:46;;;;;;;30.58;18.77;;;4.90;88.50;;;;;;5089158;28;20181;-85
2020/12/21 02:32:11;;;;;;;31.50;19.15;;;5.00;88.00;;;;;;5088868;28;20172;-86
2020/12/21 02:34:39;;;;;;;31.23;19.27;;;4.90;88.70;;;;;;5089554;28;20222;-85
2020/12/21 02:37:05;;;;;;;28.83;18.67;;;4.90;89.20;;;;;;5087245;28;20191;-85
2020/12/21 02:39:33;;;;;;;31.87;20.47;;;4.90;88.20;;;;;;5090280;28;20172;-85
2020/12/21 02:41:59;;;;;;;31.10;20.00;;;4.80;88.20;;;;;;5089980;28;20172;-85
2020/12/21 02:44:24;;;;;;;32.53;19.20;;;4.70;88.60;;;;;;5089588;28;20184;-85
2020/12/21 02:46:50;;;;;;;30.20;20.70;;;4.60;89.50;;;;;;5108900;28;20198;-85
2020/12/21 02:49:15;;;;;;;36.23;22.80;;;4.60;89.50;;;;;;5109211;28;20179;-85
2020/12/21 02:51:44;;;;;;;37.07;22.80;;;4.50;89.80;;;;;;5110429;28;20281;-85
2020/12/21 02:54:09;;;;;;;40.63;22.77;;;4.50;90.10;;;;;;5109081;28;20196;-85
2020/12/21 02:56:35;;;;;;;34.27;20.67;;;4.50;90.30;;;;;;5109555;28;20209;-85
2020/12/21 02:59:03;;;;;;;31.20;18.47;;;4.40;90.30;;;;;;5108815;28;20245;-85
2020/12/21 03:01:29;;;;;;;34.58;20.67;;;4.40;90.40;;;;;;5109912;28;20184;-85
2020/12/21 03:04:00;;;;;;;32.33;19.20;;;4.40;90.60;;;;;;5108831;28;20227;-85
2020/12/21 03:06:28;;;;;;;34.53;19.08;;;4.40;90.60;;;;;;5108306;28;20646;-86
2020/12/21 03:08:59;;;;;;;33.35;21.98;;;4.40;90.70;;;;;;5109276;27;20248;-85
2020/12/21 03:11:25;;;;;;;36.03;21.70;;;4.40;91.00;;;;;;5109767;28;20172;-85
2020/12/21 03:13:51;;;;;;;30.27;19.63;;;4.40;91.10;;;;;;5110058;28;20705;-85
2020/12/21 03:16:19;;;;;;;33.20;21.17;;;4.40;91.00;;;;;;5108615;28;20619;-85
2020/12/21 03:18:48;;;;;;;33.28;21.70;;;4.40;90.90;;;;;;5109932;28;20267;-85
2020/12/21 03:21:25;;;;;;;31.70;19.70;;;4.40;90.80;;;;;;5109951;28;20600;-85
2020/12/21 03:23:51;;;;;;;34.08;20.20;;;4.40;90.80;;;;;;5110402;28;20585;-85
2020/12/21 03:26:17;;;;;;;35.90;20.80;;;4.40;90.90;;;;;;5106356;28;20184;-85
2020/12/21 03:28:42;;;;;;;34.03;21.10;;;4.40;91.00;;;;;;5109353;28;20175;-85
2020/12/21 03:31:08;;;;;;;33.43;21.70;;;4.30;91.40;;;;;;5109192;28;20183;-85
2020/12/21 03:33:33;;;;;;;36.77;21.33;;;4.40;91.40;;;;;;5107712;28;20327;-85
2020/12/21 03:35:59;;;;;;;38.40;22.73;;;4.40;91.20;;;;;;5108193;28;20969;-85
2020/12/21 03:38:27;;;;;;;39.47;25.20;;;4.50;91.10;;;;;;5107627;28;20203;-85
2020/12/21 03:40:53;;;;;;;39.03;23.75;;;4.50;91.20;;;;;;5109253;28;20183;-85
2020/12/21 03:43:19;;;;;;;41.23;25.90;;;4.40;90.90;;;;;;5106902;28;20643;-85
2020/12/21 03:45:49;;;;;;;40.03;25.05;;;4.40;91.10;;;;;;5107840;28;20214;-85
2020/12/21 03:48:15;;;;;;;34.38;22.85;;;4.30;91.10;;;;;;5109390;28;20183;-85
2020/12/21 03:50:43;;;;;;;39.45;25.75;;;4.30;91.20;;;;;;5108813;28;20242;-85
2020/12/21 03:53:09;;;;;;;41.55;24.55;;;4.30;91.10;;;;;;5109652;28;20215;-85
2020/12/21 03:55:35;;;;;;;39.70;25.03;;;4.30;91.00;;;;;;5107946;28;20179;-85
2020/12/21 03:58:00;;;;;;;40.03;24.30;;;4.30;91.00;;;;;;5107359;28;20172;-85
2020/12/21 04:00:29;;;;;;;36.93;21.83;;;4.30;90.80;;;;;;5108398;28;20409;-85
2020/12/21 04:02:55;;;;;;;38.85;24.13;;;4.20;90.90;;;;;;5107166;28;20205;-85
2020/12/21 04:05:21;;;;;;;38.72;24.20;;;4.10;91.20;;;;;;5108895;28;20351;-86
2020/12/21 04:07:56;;;;;;;37.13;22.97;;;4.10;91.10;;;;;;5107400;28;20694;-85
2020/12/21 04:10:24;;;;;;;37.72;22.77;;;4.10;90.80;;;;;;5108330;28;20228;-85
2020/12/21 04:12:59;;;;;;;38.95;23.13;;;4.10;90.50;;;;;;5108118;28;20655;-85
2020/12/21 04:15:25;;;;;;;41.35;22.48;;;4.10;90.50;;;;;;5107412;28;20164;-85
2020/12/21 04:17:50;;;;;;;35.40;21.07;;;4.00;90.10;;;;;;5108571;28;20168;-85
2020/12/21 04:20:16;;;;;;;33.50;19.93;;;4.00;90.30;;;;;;5106827;28;20655;-85
2020/12/21 04:22:44;;;;;;;37.67;22.97;;;4.00;90.50;;;;;;5107701;28;20255;-86
2020/12/21 04:25:13;;;;;;;34.30;22.13;;;3.90;90.30;;;;;;5108416;28;20647;-85
2020/12/21 04:27:41;;;;;;;37.97;23.13;;;3.90;90.20;;;;;;5108637;28;20251;-85
2020/12/21 04:30:12;;;;;;;35.63;21.77;;;3.90;89.40;;;;;;5108050;28;20187;-85
2020/12/21 04:32:38;;;;;;;36.33;21.73;;;3.90;89.80;;;;;;5106731;28;20203;-85
2020/12/21 04:35:06;;;;;;;34.63;21.73;;;3.90;89.10;;;;;;5107521;28;20551;-85
2020/12/21 04:37:33;;;;;;;32.10;20.13;;;3.80;89.20;;;;;;5108263;28;20246;-85
2020/12/21 04:40:02;;;;;;;43.00;23.60;;;3.80;89.30;;;;;;5107194;28;20184;-85
2020/12/21 04:42:28;;;;;;;40.75;26.63;;;3.60;89.90;;;;;;5106861;28;20228;-85
2020/12/21 04:44:56;;;;;;;41.63;26.33;;;3.60;90.20;;;;;;5108063;28;20188;-85
2020/12/21 04:47:23;;;;;;;41.95;25.67;;;3.60;90.00;;;;;;5106318;28;20183;-85
2020/12/21 04:49:51;;;;;;;38.13;23.23;;;3.80;89.70;;;;;;5106853;28;20220;-86
2020/12/21 04:52:29;;;;;;;33.78;21.17;;;3.90;88.00;;;;;;5107592;28;20168;-83
2020/12/21 04:54:58;;;;;;;33.45;21.05;;;3.90;88.60;;;;;;5106539;28;20211;-85
2020/12/21 04:57:24;;;;;;;36.50;21.02;;;3.90;88.20;;;;;;5106582;28;20645;-85
2020/12/21 04:59:55;;;;;;;39.40;23.37;;;3.80;88.60;;;;;;5107490;28;20172;-84
2020/12/21 05:02:21;;;;;;;38.47;23.25;;;3.80;88.40;;;;;;5107405;28;20297;-84
2020/12/21 05:04:55;;;;;;;37.73;23.77;;;3.80;88.10;;;;;;5104738;28;20279;-85
2020/12/21 05:07:36;;;;;;;31.25;20.58;;;3.80;88.00;;;;;;5106301;28;20327;-85
2020/12/21 05:10:08;;;;;;;37.08;23.02;;;3.80;87.70;;;;;;5106336;28;20628;-85
2020/12/21 05:12:40;;;;;;;41.97;23.73;;;3.80;88.10;;;;;;5107131;28;20719;-85
2020/12/21 05:15:13;;;;;;;35.97;22.75;;;3.80;88.10;;;;;;5106435;28;20643;-85
2020/12/21 05:17:41;;;;;;;38.17;24.40;;;3.60;89.50;;;;;;5107319;28;20258;-85
2020/12/21 05:20:07;;;;;;;38.13;22.08;;;3.40;90.20;;;;;;5106163;28;20179;-85
2020/12/21 05:22:33;;;;;;;36.60;23.10;;;3.50;90.50;;;;;;5106389;28;20179;-85
2020/12/21 05:25:06;;;;;;;34.70;22.87;;;3.40;90.20;;;;;;5105901;28;20279;-85
2020/12/21 05:27:32;;;;;;;40.67;23.17;;;3.40;90.70;;;;;;5106074;28;20179;-85
2020/12/21 05:30:02;;;;;;;44.60;24.20;;;3.40;90.50;;;;;;5105981;28;20572;-85
2020/12/21 05:32:28;;;;;;;40.42;22.88;;;3.40;90.70;;;;;;5105962;28;20199;-85
2020/12/21 05:38:03;;;;;;;40.30;25.33;;;3.40;90.60;;;;;;5106339;28;20549;-85
2020/12/21 05:40:35;;;;;;;38.50;24.17;;;3.30;90.60;;;;;;5105518;28;20601;-85
2020/12/21 05:43:09;;;;;;;39.95;24.38;;;3.30;90.80;;;;;;5107073;28;20179;-85
2020/12/21 05:45:37;;;;;;;36.40;22.42;;;3.40;90.70;;;;;;5107141;28;20250;-86
2020/12/21 05:48:06;;;;;;;44.65;25.52;;;3.70;89.80;;;;;;5107213;28;20184;-85
2020/12/21 05:50:40;;;;;;;40.17;21.38;;;3.90;88.70;;;;;;5106319;28;20279;-85
2020/12/21 05:53:10;;;;;;;40.45;24.08;;;4.10;87.30;;;;;;5107346;28;20210;-85
2020/12/21 05:55:39;;;;;;;38.35;23.90;;;4.10;86.90;;;;;;5111232;28;20179;-85
2020/12/21 05:58:08;;;;;;;42.13;22.90;;;4.10;87.50;;;;;;5111022;28;20333;-85
2020/12/21 06:00:33;;;;;;;42.30;25.15;;;4.10;87.10;;;;;;5110523;28;20194;-85
2020/12/21 06:03:07;;;;;;;40.70;24.77;;;4.00;87.60;;;;;;5110622;28;20250;-85
2020/12/21 06:05:39;;;;;;;44.80;25.52;;;3.70;89.50;;;;;;5109778;28;20192;-85
2020/12/21 06:08:15;;;;;;;37.50;25.70;;;3.50;90.10;;;;;;5110907;28;20188;-85
2020/12/21 06:10:54;;;;;;;44.22;24.35;;;3.40;90.30;;;;;;5109956;28;20685;-85
2020/12/21 06:13:20;;;;;;;45.92;27.83;;;3.40;90.30;;;;;;5108650;28;20674;-85
2020/12/21 06:15:48;;;;;;;53.45;29.70;;;3.40;90.40;;;;;;5109734;28;20630;-85
2020/12/21 06:18:29;;;;;;;68.60;38.00;;;3.40;91.20;;;;;;5109112;28;20674;-85
2020/12/21 06:20:57;;;;;;;53.75;31.75;;;3.30;91.40;;;;;;5109305;28;20329;-85
2020/12/21 06:23:37;;;;;;;56.25;34.53;;;3.20;91.50;;;;;;5109982;28;20262;-85
2020/12/21 06:26:43;;;;;;;56.78;34.35;;;3.30;92.00;;;;;;5108907;28;20370;-84
2020/12/21 06:29:19;;;;;;;51.17;30.33;;;3.30;92.10;;;;;;5112683;28;20175;-83
2020/12/21 06:31:53;;;;;;;51.38;29.92;;;3.40;91.70;;;;;;5109635;28;20187;-84
2020/12/21 06:34:31;;;;;;;53.40;31.45;;;3.40;91.40;;;;;;5110371;28;20222;-86
2020/12/21 06:37:06;;;;;;;53.13;32.00;;;3.40;91.30;;;;;;5110342;28;20201;-86
2020/12/21 06:39:36;;;;;;;56.60;37.50;;;3.40;91.30;;;;;;5109377;28;20550;-86
2020/12/21 06:42:01;;;;;;;60.85;40.22;;;3.30;91.60;;;;;;5109371;28;20172;-85
2020/12/21 06:44:29;;;;;;;68.30;43.77;;;3.40;91.70;;;;;;5108897;28;20246;-85
2020/12/21 06:47:01;;;;;;;61.13;41.75;;;3.30;92.50;;;;;;5109074;28;20184;-86
2020/12/21 06:49:27;;;;;;;56.20;37.42;;;3.40;92.20;;;;;;5109792;28;20183;-86
2020/12/21 06:51:55;;;;;;;54.30;32.63;;;3.40;92.00;;;;;;5109822;28;20242;-86
2020/12/21 06:54:27;;;;;;;53.08;33.40;;;3.40;91.70;;;;;;5108373;28;20230;-86
2020/12/21 06:56:58;;;;;;;49.30;32.70;;;3.40;91.80;;;;;;5109378;28;20624;-85
2020/12/21 06:59:29;;;;;;;53.17;33.20;;;3.40;91.60;;;;;;5107758;28;20188;-86
2020/12/21 07:01:56;;;;;;;48.33;30.75;;;3.40;91.80;;;;;;5108492;28;20596;-86
2020/12/21 07:04:28;;;;;;;49.88;30.17;;;3.40;92.30;;;;;;5108281;28;20179;-86
2020/12/21 07:06:54;;;;;;;48.70;31.52;;;3.40;92.00;;;;;;5109225;27;20698;-85
2020/12/21 07:09:43;;;;;;;41.58;27.98;;;3.40;91.90;;;;;;5106268;28;20184;-86
2020/12/21 07:12:10;;;;;;;63.55;36.50;;;3.50;92.40;;;;;;5109239;28;20196;-86
2020/12/21 07:14:38;;;;;;;52.63;33.05;;;3.60;91.90;;;;;;5106725;28;20312;-86
2020/12/21 07:17:12;;;;;;;61.92;36.22;;;3.60;91.60;;;;;;5107775;28;20588;-86
2020/12/21 07:19:42;;;;;;;57.25;34.58;;;3.70;92.10;;;;;;5107783;28;20632;-86
2020/12/21 07:22:15;;;;;;;57.13;35.50;;;3.70;91.30;;;;;;5109019;28;20175;-86
2020/12/21 07:24:43;;;;;;;48.40;33.67;;;3.80;91.10;;;;;;5107760;28;20562;-86
2020/12/21 07:27:10;;;;;;;51.92;33.25;;;3.80;91.10;;;;;;5107772;27;20184;-85
2020/12/21 07:29:37;;;;;;;46.72;30.65;;;3.80;90.90;;;;;;5109106;28;20663;-86
2020/12/21 07:32:04;;;;;;;50.92;32.83;;;3.80;91.10;;;;;;5106381;28;20187;-86
2020/12/21 07:34:30;;;;;;;48.63;30.67;;;3.90;91.40;;;;;;5108375;28;20243;-86
2020/12/21 07:37:02;;;;;;;50.53;33.75;;;3.90;90.90;;;;;;5108971;28;20676;-86
2020/12/21 07:39:30;;;;;;;49.75;32.45;;;4.00;90.50;;;;;;5107082;28;20179;-86
2020/12/21 07:42:07;;;;;;;42.50;27.98;;;4.00;90.70;;;;;;5107721;28;20535;-85
2020/12/21 07:44:35;;;;;;;46.78;29.73;;;4.10;90.60;;;;;;5107540;28;20184;-85
2020/12/21 07:47:18;;;;;;;46.45;30.90;;;4.10;90.70;;;;;;5106911;28;20704;-86
2020/12/21 07:49:44;;;;;;;49.75;31.40;;;4.10;90.30;;;;;;5097483;28;20188;-86
2020/12/21 07:52:10;;;;;;;55.22;33.78;;;4.20;90.20;;;;;;5108113;28;20195;-86
2020/12/21 07:54:54;;;;;;;73.70;46.50;;;4.20;89.60;;;;;;5106794;28;20211;-86
2020/12/21 07:57:20;;;;;;;73.55;50.97;;;4.20;90.40;;;;;;5103356;28;20179;-86
2020/12/21 08:00:00;;;;;;;55.10;38.27;;;4.20;90.70;;;;;;5107412;28;20546;-84
2020/12/21 08:02:29;;;;;;;50.65;34.88;;;4.20;90.30;;;;;;5106979;28;20601;-84
2020/12/21 08:04:55;;;;;;;52.25;35.10;;;4.30;90.00;;;;;;5108104;28;20171;-84
2020/12/21 08:07:29;;;;;;;49.93;33.87;;;4.20;90.30;;;;;;5107785;28;20183;-86
2020/12/21 08:09:55;;;;;;;51.60;33.40;;;4.20;90.50;;;;;;5100602;28;20179;-86
2020/12/21 08:12:27;;;;;;;51.80;36.27;;;4.30;90.30;;;;;;5101286;28;20175;-86
2020/12/21 08:15:00;;;;;;;52.95;35.13;;;4.40;90.10;;;;;;5102818;28;20192;-86
2020/12/21 08:17:34;;;;;;;56.80;38.22;;;4.40;90.10;;;;;;5099270;28;20184;-85
2020/12/21 08:20:06;;;;;;;55.13;35.40;;;4.50;88.80;;;;;;5094788;28;20370;-83
2020/12/21 08:22:36;;;;;;;56.85;38.90;;;4.50;89.10;;;;;;5096588;28;20187;-84
2020/12/21 08:25:23;;;;;;;115.15;77.88;;;4.60;88.60;;;;;;5106565;28;20611;-83
2020/12/21 08:27:52;;;;;;;79.78;54.60;;;4.70;88.50;;;;;;5096807;28;20188;-84
2020/12/21 08:30:20;;;;;;;75.63;61.25;;;4.70;88.20;;;;;;5090308;28;20208;-84
2020/12/21 08:32:52;;;;;;;47.15;33.95;;;4.70;88.80;;;;;;5093324;28;20314;-84
2020/12/21 08:35:29;;;;;;;48.50;36.38;;;4.70;87.70;;;;;;5097140;28;20187;-84
2020/12/21 08:38:13;;;;;;;44.65;32.42;;;4.70;88.30;;;;;;5101796;28;20187;-84
2020/12/21 08:40:40;;;;;;;37.75;26.33;;;4.90;87.40;;;;;;5087624;28;20176;-83
2020/12/21 08:43:08;;;;;;;40.58;25.33;;;4.90;86.70;;;;;;5107704;28;20234;-84
2020/12/21 08:45:37;;;;;;;35.30;24.65;;;4.90;86.50;;;;;;5102658;28;20596;-84
2020/12/21 08:48:09;;;;;;;32.50;21.95;;;5.00;86.60;;;;;;5098612;28;20757;-84
2020/12/21 08:50:37;;;;;;;35.40;23.30;;;5.00;83.30;;;;;;5095879;28;20676;-83
2020/12/21 08:53:03;;;;;;;38.50;25.08;;;5.00;83.70;;;;;;5102756;28;20564;-84
2020/12/21 08:55:32;;;;;;;32.00;21.58;;;5.10;83.50;;;;;;5104166;28;20244;-84
2020/12/21 08:57:57;;;;;;;25.90;19.00;;;5.20;82.60;;;;;;5099228;28;20188;-84
2020/12/21 09:00:23;;;;;;;27.50;19.10;;;5.10;83.50;;;;;;5085470;28;20176;-84
2020/12/21 09:02:48;;;;;;;27.53;17.50;;;5.20;82.40;;;;;;5101571;28;20180;-84
2020/12/21 09:05:17;;;;;;;29.93;20.60;;;5.20;81.30;;;;;;5085585;28;20236;-85
2020/12/21 09:07:42;;;;;;;28.92;20.73;;;5.20;82.50;;;;;;5103121;28;20195;-85
2020/12/21 09:10:08;;;;;;;24.73;17.77;;;5.30;80.60;;;;;;5102221;28;20592;-85
2020/12/21 09:12:36;;;;;;;24.53;17.57;;;5.30;82.00;;;;;;5103147;28;20282;-85
2020/12/21 09:15:03;;;;;;;54.78;46.35;;;5.30;80.20;;;;;;5105826;28;20624;-85
2020/12/21 09:17:31;;;;;;;25.70;19.02;;;5.30;80.40;;;;;;5088530;28;20549;-85
2020/12/21 09:19:59;;;;;;;31.50;20.27;;;5.30;80.40;;;;;;5105309;28;20180;-84
2020/12/21 09:22:28;;;;;;;37.28;22.52;;;5.20;81.10;;;;;;5088940;28;20762;-85
2020/12/21 09:24:54;;;;;;;25.88;17.95;;;5.20;80.30;;;;;;5106315;28;20302;-84
2020/12/21 09:27:23;;;;;;;23.50;16.53;;;5.30;78.70;;;;;;5087814;28;20291;-85
2020/12/21 09:29:51;;;;;;;28.77;18.00;;;5.30;79.60;;;;;;5106282;28;20207;-85
2020/12/21 09:32:16;;;;;;;21.52;15.40;;;5.40;79.10;;;;;;5106620;28;20214;-83
2020/12/21 09:34:45;;;;;;;27.13;18.37;;;5.40;79.60;;;;;;5105057;28;20598;-84
2020/12/21 09:37:16;;;;;;;21.85;16.45;;;5.50;80.90;;;;;;5090646;28;20180;-85
2020/12/21 09:39:42;;;;;;;24.75;16.25;;;5.50;78.40;;;;;;5099423;28;20593;-85
2020/12/21 09:42:08;;;;;;;20.50;14.80;;;5.40;79.60;;;;;;5099303;28;20187;-85
2020/12/21 09:44:39;;;;;;;17.37;13.33;;;5.50;78.70;;;;;;5092473;28;20273;-85
2020/12/21 09:47:08;;;;;;;22.25;14.95;;;5.50;77.30;;;;;;5103699;28;20655;-86
2020/12/21 09:49:33;;;;;;;22.30;16.33;;;5.60;79.00;;;;;;5100961;28;20218;-84
2020/12/21 09:51:59;;;;;;;21.53;14.60;;;5.70;77.20;;;;;;5103565;28;20749;-85
2020/12/21 09:54:27;;;;;;;26.97;16.70;;;5.80;76.80;;;;;;5089529;28;20549;-85
2020/12/21 09:56:56;;;;;;;22.92;15.15;;;5.90;76.90;;;;;;5098207;28;20179;-85
2020/12/21 09:59:28;;;;;;;19.55;15.13;;;5.80;77.00;;;;;;5103138;28;20611;-86
2020/12/21 10:01:54;;;;;;;22.50;14.88;;;5.70;76.00;;;;;;5106638;28;20546;-85
2020/12/21 10:04:20;;;;;;;22.27;15.77;;;5.90;75.60;;;;;;5090855;28;20187;-86
2020/12/21 10:06:52;;;;;;;24.98;16.98;;;5.80;76.80;;;;;;5091394;28;20784;-86
2020/12/21 10:09:24;;;;;;;21.88;16.52;;;5.90;76.80;;;;;;5104596;28;20844;-86
2020/12/21 10:11:52;;;;;;;22.38;15.60;;;5.90;76.90;;;;;;5102481;28;20292;-86
2020/12/21 10:14:21;;;;;;;20.42;14.90;;;6.10;76.00;;;;;;5087669;28;20200;-86
2020/12/21 10:16:54;;;;;;;25.55;18.00;;;6.10;76.80;;;;;;5095316;28;20509;-85
2020/12/21 10:19:20;;;;;;;23.73;16.90;;;6.10;77.50;;;;;;5095130;28;20172;-86
2020/12/21 10:21:46;;;;;;;26.10;17.07;;;6.20;76.60;;;;;;5092647;28;20563;-87
2020/12/21 10:24:12;;;;;;;21.85;15.00;;;6.40;75.80;;;;;;5088294;28;20180;-86
2020/12/21 10:26:47;;;;;;;20.87;16.20;;;6.30;74.80;;;;;;5103365;28;20271;-85
2020/12/21 10:29:15;;;;;;;20.30;15.20;;;6.20;75.00;;;;;;5104460;28;20648;-86
2020/12/21 10:31:47;;;;;;;21.90;14.77;;;6.30;75.10;;;;;;5099693;28;20195;-86
2020/12/21 10:34:13;;;;;;;23.80;17.95;;;6.50;74.90;;;;;;5098157;28;20199;-86
2020/12/21 10:36:49;;;;;;;28.45;19.95;;;6.50;72.50;;;;;;5100299;28;20184;-86
2020/12/21 10:39:15;;;;;;;24.25;16.42;;;6.60;72.90;;;;;;5100432;28;20240;-85
2020/12/21 10:41:44;;;;;;;21.97;16.53;;;6.50;73.90;;;;;;5102880;28;20188;-86
2020/12/21 10:44:10;;;;;;;22.00;16.30;;;6.40;74.30;;;;;;5104193;28;20184;-83
2020/12/21 10:46:42;;;;;;;27.20;19.37;;;6.40;73.40;;;;;;5108908;28;20187;-86
2020/12/21 10:49:10;;;;;;;24.95;17.40;;;6.40;73.40;;;;;;5107777;28;20603;-85
2020/12/21 10:51:36;;;;;;;25.52;18.02;;;6.40;73.80;;;;;;5088946;28;20270;-85
2020/12/21 10:54:05;;;;;;;23.03;15.50;;;6.40;73.60;;;;;;5100181;28;20208;-85
2020/12/21 10:56:36;;;;;;;21.90;16.88;;;6.40;73.80;;;;;;5096343;28;20476;-85
2020/12/21 10:59:08;;;;;;;26.00;18.30;;;6.50;73.90;;;;;;5105160;28;20192;-85
2020/12/21 11:01:33;;;;;;;24.10;17.40;;;6.60;73.90;;;;;;5105874;28;20619;-85
2020/12/21 11:04:02;;;;;;;24.00;16.80;;;6.60;72.90;;;;;;5099991;28;20194;-85
2020/12/21 11:06:28;;;;;;;28.92;20.70;;;6.60;73.10;;;;;;5101119;28;20215;-84
2020/12/21 11:08:56;;;;;;;25.27;17.10;;;6.70;74.60;;;;;;5104292;28;20219;-85
2020/12/21 11:14:56;;;;;;;29.70;19.80;;;6.60;73.50;;;;;;5089987;28;20991;-86
2020/12/21 11:18:17;;;;;;;26.23;19.10;;;6.60;74.60;;;;;;5087715;28;20180;-85
2020/12/21 11:20:45;;;;;;;32.00;20.70;;;6.60;75.80;;;;;;5088613;28;20192;-85
2020/12/21 11:26:19;;;;;;;33.85;22.70;;;6.70;75.30;;;;;;5088629;28;20179;-85
2020/12/21 11:29:27;;;;;;;29.45;20.02;;;6.80;75.00;;;;;;5098633;28;20180;-86
2020/12/21 11:38:31;;;;;;;25.80;20.50;;;6.90;74.90;;;;;;5104150;28;20189;-85
2020/12/21 11:41:19;;;;;;;29.00;19.65;;;6.90;74.50;;;;;;5100057;28;20586;-86
2020/12/21 11:43:53;;;;;;;27.15;18.50;;;6.80;75.20;;;;;;5087478;28;20713;-85
2020/12/21 11:49:34;;;;;;;29.52;21.10;;;6.80;76.10;;;;;;5094276;28;20664;-84
2020/12/21 11:52:31;;;;;;;31.95;22.05;;;6.80;76.70;;;;;;5092473;28;20569;-85
2020/12/21 11:55:14;;;;;;;29.70;20.40;;;6.90;76.90;;;;;;5098628;28;20608;-85
2020/12/21 12:00:48;;;;;;;30.33;20.50;;;7.10;73.10;;;;;;5105184;28;20203;-84
2020/12/21 12:06:57;;;;;;;30.27;20.40;;;7.20;73.30;;;;;;5097796;28;20190;-84
2020/12/21 12:12:35;;;;;;;26.45;19.55;;;7.20;71.00;;;;;;5099503;28;20183;-84
2020/12/21 12:15:37;;;;;;;27.55;20.83;;;7.20;71.40;;;;;;5099417;28;20182;-85
2020/12/21 12:18:12;;;;;;;103.88;93.35;;;7.20;71.10;;;;;;5086255;28;20180;-84
2020/12/21 12:24:08;;;;;;;41.72;35.80;;;7.10;70.50;;;;;;5091433;28;20241;-84
2020/12/21 12:26:40;;;;;;;37.13;33.13;;;7.10;70.80;;;;;;5092321;28;20187;-84
2020/12/21 12:29:32;;;;;;;39.00;34.88;;;7.20;70.80;;;;;;5092711;28;20199;-85
2020/12/21 12:32:10;;;;;;;49.67;44.70;;;7.20;71.00;;;;;;5087243;28;20203;-84
2020/12/21 12:34:39;;;;;;;39.95;29.65;;;7.20;72.00;;;;;;5089244;28;20204;-84
2020/12/21 12:37:32;;;;;;;44.63;37.88;;;7.20;72.90;;;;;;5086190;28;20695;-84
2020/12/21 12:40:35;;;;;;;44.47;29.20;;;7.20;73.40;;;;;;5087810;28;20191;-85
2020/12/21 12:46:16;;;;;;;56.72;36.17;;;7.10;72.80;;;;;;5093792;28;20188;-85
2020/12/21 12:54:53;;;;;;;27.20;19.92;;;7.20;74.00;;;;;;5100299;28;20744;-85
2020/12/21 12:57:37;;;;;;;29.23;22.13;;;7.20;72.80;;;;;;5088958;28;20199;-85
2020/12/21 13:00:27;;;;;;;44.35;29.30;;;7.20;72.80;;;;;;5087102;28;20545;-84
2020/12/21 13:03:26;;;;;;;31.02;22.05;;;7.20;74.40;;;;;;5100429;28;20255;-85
2020/12/21 13:06:01;;;;;;;27.77;20.45;;;7.20;73.30;;;;;;5093797;28;20233;-85
2020/12/21 13:08:36;;;;;;;24.10;19.13;;;7.20;72.30;;;;;;5098290;28;20183;-85
2020/12/21 13:11:04;;;;;;;25.35;19.05;;;7.30;71.60;;;;;;5101541;28;20290;-85
2020/12/21 13:13:48;;;;;;;28.75;21.50;;;7.30;72.10;;;;;;5088557;28;20207;-85
2020/12/21 13:25:28;;;;;;;30.85;24.73;;;7.20;73.60;;;;;;5090124;28;20223;-85
2020/12/21 13:28:19;;;;;;;25.40;19.98;;;7.20;74.10;;;;;;5112517;27;20183;-86
2020/12/21 13:31:15;;;;;;;27.13;19.20;;;7.20;73.60;;;;;;5101792;28;20204;-85
2020/12/21 13:36:42;;;;;;;33.33;24.05;;;7.00;75.30;;;;;;5104155;28;20185;-85
2020/12/21 13:42:34;;;;;;;27.42;19.13;;;7.10;74.90;;;;;;5104734;28;20198;-85
2020/12/21 13:45:37;;;;;;;23.73;17.92;;;7.10;75.30;;;;;;5090818;28;20203;-85
2020/12/21 13:48:12;;;;;;;22.55;17.27;;;7.00;76.30;;;;;;5098371;28;20187;-85
2020/12/21 13:50:59;;;;;;;25.23;19.58;;;7.10;75.30;;;;;;5099693;28;20235;-85
2020/12/21 13:53:27;;;;;;;23.75;18.35;;;7.10;75.90;;;;;;5091758;28;20625;-85